sensor_id;sensor_type;location;lat;lon;timestamp;temperature;humidity
4306;DHT22;2166;49.926;8.608;2023-06-05T00:01:47;13.90;62.30
4306;DHT22;2166;49.926;8.608;2023-06-05T00:04:19;13.90;62.70
4306;DHT22;2166;49.926;8.608;2023-06-05T00:06:48;13.80;62.60
4306;DHT22;2166;49.926;8.608;2023-06-05T00:09:18;13.80;62.60
4306;DHT22;2166;49.926;8.608;2023-06-05T00:11:50;13.80;62.40
4306;DHT22;2166;49.926;8.608;2023-06-05T00:14:18;13.70;62.70
4306;DHT22;2166;49.926;8.608;2023-06-05T00:16:49;13.70;62.70
4306;DHT22;2166;49.926;8.608;2023-06-05T00:19:21;13.70;63.10
4306;DHT22;2166;49.926;8.608;2023-06-05T00:21:50;13.70;63.10
4306;DHT22;2166;49.926;8.608;2023-06-05T00:24:19;13.60;63.40
4306;DHT22;2166;49.926;8.608;2023-06-05T00:41:29;13.30;64.20
4306;DHT22;2166;49.926;8.608;2023-06-05T00:44:02;13.30;64.50
4306;DHT22;2166;49.926;8.608;2023-06-05T00:46:31;13.20;64.60
4306;DHT22;2166;49.926;8.608;2023-06-05T00:49:04;13.20;64.80
4306;DHT22;2166;49.926;8.608;2023-06-05T00:51:35;13.10;64.90
4306;DHT22;2166;49.926;8.608;2023-06-05T00:54:06;13.10;65.20
4306;DHT22;2166;49.926;8.608;2023-06-05T00:56:38;13.00;65.20
4306;DHT22;2166;49.926;8.608;2023-06-05T00:59:08;13.00;65.50
4306;DHT22;2166;49.926;8.608;2023-06-05T01:01:40;12.90;66.10
4306;DHT22;2166;49.926;8.608;2023-06-05T01:04:10;12.80;66.20
4306;DHT22;2166;49.926;8.608;2023-06-05T01:06:40;12.80;66.50
4306;DHT22;2166;49.926;8.608;2023-06-05T01:09:11;12.80;66.60
4306;DHT22;2166;49.926;8.608;2023-06-05T01:11:48;12.70;66.30
4306;DHT22;2166;49.926;8.608;2023-06-05T01:14:19;12.70;66.30
4306;DHT22;2166;49.926;8.608;2023-06-05T01:16:51;12.70;66.60
4306;DHT22;2166;49.926;8.608;2023-06-05T01:19:22;12.70;66.20
4306;DHT22;2166;49.926;8.608;2023-06-05T01:21:52;12.60;66.20
4306;DHT22;2166;49.926;8.608;2023-06-05T01:24:22;12.60;66.40
4306;DHT22;2166;49.926;8.608;2023-06-05T01:27:01;12.60;66.50
4306;DHT22;2166;49.926;8.608;2023-06-05T01:29:35;12.60;66.10
4306;DHT22;2166;49.926;8.608;2023-06-05T01:32:11;12.60;66.20
4306;DHT22;2166;49.926;8.608;2023-06-05T01:34:49;12.60;65.90
4306;DHT22;2166;49.926;8.608;2023-06-05T01:37:21;12.60;65.80
4306;DHT22;2166;49.926;8.608;2023-06-05T01:39:59;12.60;65.90
4306;DHT22;2166;49.926;8.608;2023-06-05T01:42:28;12.60;65.80
4306;DHT22;2166;49.926;8.608;2023-06-05T01:45:02;12.60;65.70
4306;DHT22;2166;49.926;8.608;2023-06-05T01:47:32;12.60;66.00
4306;DHT22;2166;49.926;8.608;2023-06-05T01:50:00;12.60;66.00
4306;DHT22;2166;49.926;8.608;2023-06-05T01:52:29;12.50;66.00
4306;DHT22;2166;49.926;8.608;2023-06-05T01:55:01;12.50;66.00
4306;DHT22;2166;49.926;8.608;2023-06-05T01:57:31;12.50;66.10
4306;DHT22;2166;49.926;8.608;2023-06-05T02:00:01;12.50;66.20
4306;DHT22;2166;49.926;8.608;2023-06-05T02:02:39;12.50;66.10
4306;DHT22;2166;49.926;8.608;2023-06-05T02:05:10;12.50;66.00
4306;DHT22;2166;49.926;8.608;2023-06-05T02:07:43;12.50;65.90
4306;DHT22;2166;49.926;8.608;2023-06-05T02:10:16;12.50;66.10
4306;DHT22;2166;49.926;8.608;2023-06-05T02:12:46;12.50;66.10
4306;DHT22;2166;49.926;8.608;2023-06-05T02:15:16;12.50;66.20
4306;DHT22;2166;49.926;8.608;2023-06-05T02:17:45;12.50;66.00
4306;DHT22;2166;49.926;8.608;2023-06-05T02:20:19;12.50;66.20
4306;DHT22;2166;49.926;8.608;2023-06-05T02:22:48;12.50;66.30
4306;DHT22;2166;49.926;8.608;2023-06-05T02:25:21;12.50;66.20
4306;DHT22;2166;49.926;8.608;2023-06-05T02:27:55;12.50;66.20
4306;DHT22;2166;49.926;8.608;2023-06-05T02:30:25;12.40;66.30
4306;DHT22;2166;49.926;8.608;2023-06-05T02:32:56;12.40;66.40
4306;DHT22;2166;49.926;8.608;2023-06-05T02:35:28;12.40;66.80
4306;DHT22;2166;49.926;8.608;2023-06-05T02:37:58;12.40;66.80
4306;DHT22;2166;49.926;8.608;2023-06-05T02:40:28;12.40;67.00
4306;DHT22;2166;49.926;8.608;2023-06-05T02:42:57;12.30;67.20
4306;DHT22;2166;49.926;8.608;2023-06-05T02:45:28;12.30;67.30
4306;DHT22;2166;49.926;8.608;2023-06-05T02:47:57;12.30;67.60
4306;DHT22;2166;49.926;8.608;2023-06-05T02:50:28;12.30;67.70
4306;DHT22;2166;49.926;8.608;2023-06-05T02:53:04;12.30;67.60
4306;DHT22;2166;49.926;8.608;2023-06-05T02:55:40;12.20;67.80
4306;DHT22;2166;49.926;8.608;2023-06-05T02:58:13;12.20;68.00
4306;DHT22;2166;49.926;8.608;2023-06-05T03:00:51;12.20;67.90
4306;DHT22;2166;49.926;8.608;2023-06-05T03:03:25;12.20;68.10
4306;DHT22;2166;49.926;8.608;2023-06-05T03:05:59;12.20;68.10
4306;DHT22;2166;49.926;8.608;2023-06-05T03:08:34;12.20;68.30
4306;DHT22;2166;49.926;8.608;2023-06-05T03:11:06;12.10;68.30
4306;DHT22;2166;49.926;8.608;2023-06-05T03:13:36;12.10;68.40
4306;DHT22;2166;49.926;8.608;2023-06-05T03:16:06;12.10;68.50
4306;DHT22;2166;49.926;8.608;2023-06-05T03:18:40;12.10;68.60
4306;DHT22;2166;49.926;8.608;2023-06-05T03:21:13;12.00;68.50
4306;DHT22;2166;49.926;8.608;2023-06-05T03:23:43;12.00;68.60
4306;DHT22;2166;49.926;8.608;2023-06-05T03:26:17;12.00;68.60
4306;DHT22;2166;49.926;8.608;2023-06-05T03:28:49;12.00;68.60
4306;DHT22;2166;49.926;8.608;2023-06-05T03:31:18;12.00;68.70
4306;DHT22;2166;49.926;8.608;2023-06-05T03:33:49;12.00;68.80
4306;DHT22;2166;49.926;8.608;2023-06-05T03:36:19;12.00;68.80
4306;DHT22;2166;49.926;8.608;2023-06-05T03:38:50;12.00;68.80
4306;DHT22;2166;49.926;8.608;2023-06-05T03:41:21;12.00;68.90
4306;DHT22;2166;49.926;8.608;2023-06-05T03:43:54;12.10;68.90
4306;DHT22;2166;49.926;8.608;2023-06-05T03:46:24;12.10;68.90
4306;DHT22;2166;49.926;8.608;2023-06-05T03:48:58;12.10;68.90
4306;DHT22;2166;49.926;8.608;2023-06-05T03:51:34;12.10;68.70
4306;DHT22;2166;49.926;8.608;2023-06-05T03:54:03;12.20;68.60
4306;DHT22;2166;49.926;8.608;2023-06-05T03:56:34;12.30;68.70
4306;DHT22;2166;49.926;8.608;2023-06-05T03:59:09;12.30;68.60
4306;DHT22;2166;49.926;8.608;2023-06-05T04:01:50;12.40;68.30
4306;DHT22;2166;49.926;8.608;2023-06-05T04:04:19;12.50;68.40
4306;DHT22;2166;49.926;8.608;2023-06-05T04:06:51;12.60;68.10
4306;DHT22;2166;49.926;8.608;2023-06-05T04:09:21;12.80;67.70
4306;DHT22;2166;49.926;8.608;2023-06-05T04:11:55;13.10;67.00
4306;DHT22;2166;49.926;8.608;2023-06-05T04:14:24;13.40;66.00
4306;DHT22;2166;49.926;8.608;2023-06-05T04:16:54;13.80;64.90
4306;DHT22;2166;49.926;8.608;2023-06-05T04:19:29;14.20;63.80
4306;DHT22;2166;49.926;8.608;2023-06-05T04:21:57;14.70;62.30
4306;DHT22;2166;49.926;8.608;2023-06-05T04:24:29;15.00;61.50
4306;DHT22;2166;49.926;8.608;2023-06-05T04:27:01;15.30;60.40
4306;DHT22;2166;49.926;8.608;2023-06-05T04:29:31;15.60;59.90
4306;DHT22;2166;49.926;8.608;2023-06-05T04:32:01;15.90;59.00
4306;DHT22;2166;49.926;8.608;2023-06-05T04:34:32;16.20;58.30
4306;DHT22;2166;49.926;8.608;2023-06-05T04:37:00;16.40;57.80
4306;DHT22;2166;49.926;8.608;2023-06-05T04:39:31;16.60;57.10
4306;DHT22;2166;49.926;8.608;2023-06-05T04:42:02;16.80;56.70
4306;DHT22;2166;49.926;8.608;2023-06-05T04:44:42;16.90;56.40
4306;DHT22;2166;49.926;8.608;2023-06-05T04:47:12;17.10;56.10
4306;DHT22;2166;49.926;8.608;2023-06-05T04:49:42;17.30;55.70
4306;DHT22;2166;49.926;8.608;2023-06-05T04:52:14;17.40;55.40
4306;DHT22;2166;49.926;8.608;2023-06-05T04:54:44;17.70;55.00
4306;DHT22;2166;49.926;8.608;2023-06-05T04:57:15;17.80;54.50
4306;DHT22;2166;49.926;8.608;2023-06-05T04:59:48;18.00;54.20
4306;DHT22;2166;49.926;8.608;2023-06-05T05:02:18;18.10;54.10
4306;DHT22;2166;49.926;8.608;2023-06-05T05:04:47;18.30;53.40
4306;DHT22;2166;49.926;8.608;2023-06-05T05:07:16;18.30;53.20
4306;DHT22;2166;49.926;8.608;2023-06-05T05:09:45;18.50;52.80
4306;DHT22;2166;49.926;8.608;2023-06-05T05:12:17;18.50;53.10
4306;DHT22;2166;49.926;8.608;2023-06-05T05:14:46;19.10;52.10
4306;DHT22;2166;49.926;8.608;2023-06-05T05:17:15;19.20;51.80
4306;DHT22;2166;49.926;8.608;2023-06-05T05:19:48;19.50;51.70
4306;DHT22;2166;49.926;8.608;2023-06-05T05:22:17;19.80;50.70
4306;DHT22;2166;49.926;8.608;2023-06-05T05:24:46;19.90;50.30
4306;DHT22;2166;49.926;8.608;2023-06-05T05:27:18;20.20;50.00
4306;DHT22;2166;49.926;8.608;2023-06-05T05:29:48;20.30;49.60
4306;DHT22;2166;49.926;8.608;2023-06-05T05:32:17;20.40;49.80
4306;DHT22;2166;49.926;8.608;2023-06-05T05:34:49;20.70;49.20
4306;DHT22;2166;49.926;8.608;2023-06-05T05:37:18;21.00;48.50
4306;DHT22;2166;49.926;8.608;2023-06-05T05:39:48;21.50;48.10
4306;DHT22;2166;49.926;8.608;2023-06-05T05:42:19;21.80;47.40
4306;DHT22;2166;49.926;8.608;2023-06-05T05:44:49;22.10;46.60
4306;DHT22;2166;49.926;8.608;2023-06-05T05:47:18;22.40;46.10
4306;DHT22;2166;49.926;8.608;2023-06-05T05:49:50;22.40;45.40
4306;DHT22;2166;49.926;8.608;2023-06-05T05:52:18;22.30;45.80
4306;DHT22;2166;49.926;8.608;2023-06-05T05:54:47;22.60;45.30
4306;DHT22;2166;49.926;8.608;2023-06-05T05:57:16;22.90;45.10
4306;DHT22;2166;49.926;8.608;2023-06-05T05:59:45;23.20;44.60
4306;DHT22;2166;49.926;8.608;2023-06-05T06:02:15;23.30;43.90
4306;DHT22;2166;49.926;8.608;2023-06-05T06:04:48;23.60;43.90
4306;DHT22;2166;49.926;8.608;2023-06-05T06:07:19;24.00;43.30
4306;DHT22;2166;49.926;8.608;2023-06-05T06:09:48;24.40;43.10
4306;DHT22;2166;49.926;8.608;2023-06-05T06:12:17;24.70;42.80
4306;DHT22;2166;49.926;8.608;2023-06-05T06:14:48;24.90;41.50
4306;DHT22;2166;49.926;8.608;2023-06-05T06:17:16;25.00;41.80
4306;DHT22;2166;49.926;8.608;2023-06-05T06:19:45;25.10;40.70
4306;DHT22;2166;49.926;8.608;2023-06-05T06:22:15;25.20;40.50
4306;DHT22;2166;49.926;8.608;2023-06-05T06:24:44;25.40;40.50
4306;DHT22;2166;49.926;8.608;2023-06-05T06:27:14;25.70;40.50
4306;DHT22;2166;49.926;8.608;2023-06-05T06:30:06;25.60;40.10
4306;DHT22;2166;49.926;8.608;2023-06-05T06:32:38;25.90;40.40
4306;DHT22;2166;49.926;8.608;2023-06-05T06:35:17;26.70;39.60
4306;DHT22;2166;49.926;8.608;2023-06-05T06:37:52;27.10;38.80
4306;DHT22;2166;49.926;8.608;2023-06-05T06:40:22;27.50;38.10
4306;DHT22;2166;49.926;8.608;2023-06-05T06:42:51;27.30;38.20
4306;DHT22;2166;49.926;8.608;2023-06-05T06:45:36;27.50;38.10
4306;DHT22;2166;49.926;8.608;2023-06-05T06:48:05;27.90;37.60
4306;DHT22;2166;49.926;8.608;2023-06-05T06:50:34;28.10;37.30
4306;DHT22;2166;49.926;8.608;2023-06-05T06:53:02;28.50;37.20
4306;DHT22;2166;49.926;8.608;2023-06-05T06:55:31;28.90;36.90
4306;DHT22;2166;49.926;8.608;2023-06-05T06:57:59;29.40;36.00
4306;DHT22;2166;49.926;8.608;2023-06-05T07:00:28;29.80;36.10
4306;DHT22;2166;49.926;8.608;2023-06-05T07:03:00;30.30;34.60
4306;DHT22;2166;49.926;8.608;2023-06-05T07:05:29;30.30;34.40
4306;DHT22;2166;49.926;8.608;2023-06-05T07:08:04;30.50;34.70
4306;DHT22;2166;49.926;8.608;2023-06-05T07:10:35;31.10;34.30
4306;DHT22;2166;49.926;8.608;2023-06-05T07:13:07;31.30;34.10
4306;DHT22;2166;49.926;8.608;2023-06-05T07:15:38;31.50;33.40
4306;DHT22;2166;49.926;8.608;2023-06-05T07:18:08;31.60;32.80
4306;DHT22;2166;49.926;8.608;2023-06-05T07:20:40;31.80;33.60
4306;DHT22;2166;49.926;8.608;2023-06-05T07:23:09;31.90;33.60
4306;DHT22;2166;49.926;8.608;2023-06-05T07:25:38;32.60;32.40
4306;DHT22;2166;49.926;8.608;2023-06-05T07:28:09;33.00;32.10
4306;DHT22;2166;49.926;8.608;2023-06-05T07:30:41;32.80;32.10
4306;DHT22;2166;49.926;8.608;2023-06-05T07:33:12;33.00;31.30
4306;DHT22;2166;49.926;8.608;2023-06-05T07:35:55;32.90;31.20
4306;DHT22;2166;49.926;8.608;2023-06-05T07:38:24;31.90;32.00
4306;DHT22;2166;49.926;8.608;2023-06-05T07:40:53;31.90;32.50
4306;DHT22;2166;49.926;8.608;2023-06-05T07:43:25;32.00;32.80
4306;DHT22;2166;49.926;8.608;2023-06-05T07:45:54;32.50;32.20
4306;DHT22;2166;49.926;8.608;2023-06-05T07:48:26;33.20;31.50
4306;DHT22;2166;49.926;8.608;2023-06-05T07:50:54;33.40;31.00
4306;DHT22;2166;49.926;8.608;2023-06-05T07:53:23;33.40;31.10
4306;DHT22;2166;49.926;8.608;2023-06-05T07:55:52;33.50;31.30
4306;DHT22;2166;49.926;8.608;2023-06-05T07:58:23;33.60;30.80
4306;DHT22;2166;49.926;8.608;2023-06-05T08:00:54;33.90;30.50
4306;DHT22;2166;49.926;8.608;2023-06-05T08:03:26;34.20;30.40
4306;DHT22;2166;49.926;8.608;2023-06-05T08:05:55;34.40;30.50
4306;DHT22;2166;49.926;8.608;2023-06-05T08:08:23;34.80;30.30
4306;DHT22;2166;49.926;8.608;2023-06-05T08:10:52;35.40;29.40
4306;DHT22;2166;49.926;8.608;2023-06-05T08:13:22;35.80;29.00
4306;DHT22;2166;49.926;8.608;2023-06-05T08:15:55;35.90;29.00
4306;DHT22;2166;49.926;8.608;2023-06-05T08:18:24;35.40;29.10
4306;DHT22;2166;49.926;8.608;2023-06-05T08:20:54;34.40;29.80
4306;DHT22;2166;49.926;8.608;2023-06-05T08:23:23;34.00;30.40
4306;DHT22;2166;49.926;8.608;2023-06-05T08:25:52;34.40;30.40
4306;DHT22;2166;49.926;8.608;2023-06-05T08:28:23;34.90;30.70
4306;DHT22;2166;49.926;8.608;2023-06-05T08:30:52;35.20;29.90
4306;DHT22;2166;49.926;8.608;2023-06-05T08:33:21;35.40;29.70
4306;DHT22;2166;49.926;8.608;2023-06-05T08:35:50;35.40;29.50
4306;DHT22;2166;49.926;8.608;2023-06-05T08:38:22;35.00;30.00
4306;DHT22;2166;49.926;8.608;2023-06-05T08:40:53;35.50;30.10
4306;DHT22;2166;49.926;8.608;2023-06-05T08:43:25;36.10;29.30
4306;DHT22;2166;49.926;8.608;2023-06-05T08:45:56;36.70;28.80
4306;DHT22;2166;49.926;8.608;2023-06-05T08:48:26;37.30;28.40
4306;DHT22;2166;49.926;8.608;2023-06-05T08:51:03;37.20;29.00
4306;DHT22;2166;49.926;8.608;2023-06-05T08:53:36;37.80;28.60
4306;DHT22;2166;49.926;8.608;2023-06-05T08:56:07;38.40;28.00
4306;DHT22;2166;49.926;8.608;2023-06-05T08:58:36;39.20;27.70
4306;DHT22;2166;49.926;8.608;2023-06-05T09:01:09;39.80;27.00
4306;DHT22;2166;49.926;8.608;2023-06-05T09:03:40;39.50;27.30
4306;DHT22;2166;49.926;8.608;2023-06-05T09:06:10;39.50;27.20
4306;DHT22;2166;49.926;8.608;2023-06-05T09:08:41;39.80;26.80
4306;DHT22;2166;49.926;8.608;2023-06-05T09:11:23;39.50;27.20
4306;DHT22;2166;49.926;8.608;2023-06-05T09:13:54;40.10;26.90
4306;DHT22;2166;49.926;8.608;2023-06-05T09:16:33;41.00;26.50
4306;DHT22;2166;49.926;8.608;2023-06-05T09:19:07;41.90;25.90
4306;DHT22;2166;49.926;8.608;2023-06-05T09:21:37;41.50;26.20
4306;DHT22;2166;49.926;8.608;2023-06-05T09:24:15;41.50;26.30
4306;DHT22;2166;49.926;8.608;2023-06-05T09:26:53;42.00;25.80
4306;DHT22;2166;49.926;8.608;2023-06-05T09:29:24;42.30;25.70
4306;DHT22;2166;49.926;8.608;2023-06-05T09:31:56;42.20;26.10
4306;DHT22;2166;49.926;8.608;2023-06-05T09:34:29;42.60;25.50
4306;DHT22;2166;49.926;8.608;2023-06-05T09:36:59;42.80;24.90
4306;DHT22;2166;49.926;8.608;2023-06-05T09:39:49;42.30;26.10
4306;DHT22;2166;49.926;8.608;2023-06-05T09:42:31;41.90;25.60
4306;DHT22;2166;49.926;8.608;2023-06-05T09:45:02;40.70;25.80
4306;DHT22;2166;49.926;8.608;2023-06-05T09:47:33;39.50;27.00
4306;DHT22;2166;49.926;8.608;2023-06-05T09:50:23;38.60;27.90
4306;DHT22;2166;49.926;8.608;2023-06-05T09:52:54;38.30;28.50
4306;DHT22;2166;49.926;8.608;2023-06-05T09:55:29;38.10;28.20
4306;DHT22;2166;49.926;8.608;2023-06-05T09:57:59;39.00;27.60
4306;DHT22;2166;49.926;8.608;2023-06-05T10:00:38;39.80;26.80
4306;DHT22;2166;49.926;8.608;2023-06-05T10:03:13;40.10;26.10
4306;DHT22;2166;49.926;8.608;2023-06-05T10:05:43;39.70;25.80
4306;DHT22;2166;49.926;8.608;2023-06-05T10:08:16;39.30;26.20
4306;DHT22;2166;49.926;8.608;2023-06-05T10:10:47;38.90;26.20
4306;DHT22;2166;49.926;8.608;2023-06-05T10:13:17;39.20;26.40
4306;DHT22;2166;49.926;8.608;2023-06-05T10:15:46;39.70;26.40
4306;DHT22;2166;49.926;8.608;2023-06-05T10:18:17;39.90;25.60
4306;DHT22;2166;49.926;8.608;2023-06-05T10:20:51;40.30;25.80
4306;DHT22;2166;49.926;8.608;2023-06-05T10:23:22;40.70;24.80
4306;DHT22;2166;49.926;8.608;2023-06-05T10:25:54;40.30;24.90
4306;DHT22;2166;49.926;8.608;2023-06-05T10:28:29;39.90;25.30
4306;DHT22;2166;49.926;8.608;2023-06-05T10:31:19;39.70;25.90
4306;DHT22;2166;49.926;8.608;2023-06-05T10:34:28;40.50;24.90
4306;DHT22;2166;49.926;8.608;2023-06-05T10:37:30;40.30;25.60
4306;DHT22;2166;49.926;8.608;2023-06-05T10:40:03;40.70;25.40
4306;DHT22;2166;49.926;8.608;2023-06-05T10:42:34;41.40;25.00
4306;DHT22;2166;49.926;8.608;2023-06-05T10:45:07;41.40;24.20
4306;DHT22;2166;49.926;8.608;2023-06-05T10:47:52;41.70;24.40
4306;DHT22;2166;49.926;8.608;2023-06-05T10:50:29;42.70;23.60
4306;DHT22;2166;49.926;8.608;2023-06-05T10:52:59;43.50;23.10
4306;DHT22;2166;49.926;8.608;2023-06-05T10:55:41;44.40;23.40
4306;DHT22;2166;49.926;8.608;2023-06-05T10:58:13;44.90;23.00
4306;DHT22;2166;49.926;8.608;2023-06-05T11:01:17;44.50;22.80
4306;DHT22;2166;49.926;8.608;2023-06-05T11:03:57;44.70;22.80
4306;DHT22;2166;49.926;8.608;2023-06-05T11:06:30;44.30;22.30
4306;DHT22;2166;49.926;8.608;2023-06-05T11:09:07;43.40;23.70
4306;DHT22;2166;49.926;8.608;2023-06-05T11:11:54;40.90;23.90
4306;DHT22;2166;49.926;8.608;2023-06-05T11:14:26;41.10;23.80
4306;DHT22;2166;49.926;8.608;2023-06-05T11:17:26;42.20;23.30
4306;DHT22;2166;49.926;8.608;2023-06-05T11:19:56;42.10;22.90
4306;DHT22;2166;49.926;8.608;2023-06-05T11:22:25;42.50;23.30
4306;DHT22;2166;49.926;8.608;2023-06-05T11:25:25;43.10;22.70
4306;DHT22;2166;49.926;8.608;2023-06-05T11:27:55;43.30;22.50
4306;DHT22;2166;49.926;8.608;2023-06-05T11:30:38;44.10;23.00
4306;DHT22;2166;49.926;8.608;2023-06-05T11:33:17;44.30;22.50
4306;DHT22;2166;49.926;8.608;2023-06-05T11:35:48;42.60;22.90
4306;DHT22;2166;49.926;8.608;2023-06-05T11:38:18;41.90;23.30
4306;DHT22;2166;49.926;8.608;2023-06-05T11:40:52;41.70;23.00
4306;DHT22;2166;49.926;8.608;2023-06-05T11:43:21;42.20;23.00
4306;DHT22;2166;49.926;8.608;2023-06-05T11:45:55;41.60;23.40
4306;DHT22;2166;49.926;8.608;2023-06-05T11:48:25;41.40;24.10
4306;DHT22;2166;49.926;8.608;2023-06-05T11:50:56;42.20;24.00
4306;DHT22;2166;49.926;8.608;2023-06-05T11:53:27;42.70;23.30
4306;DHT22;2166;49.926;8.608;2023-06-05T11:55:57;42.80;23.00
4306;DHT22;2166;49.926;8.608;2023-06-05T11:58:37;43.10;22.80
4306;DHT22;2166;49.926;8.608;2023-06-05T12:01:11;43.50;22.60
4306;DHT22;2166;49.926;8.608;2023-06-05T12:03:48;43.90;22.50
4306;DHT22;2166;49.926;8.608;2023-06-05T12:06:21;44.40;21.60
4306;DHT22;2166;49.926;8.608;2023-06-05T12:08:49;44.30;21.50
4306;DHT22;2166;49.926;8.608;2023-06-05T12:11:24;43.30;23.00
4306;DHT22;2166;49.926;8.608;2023-06-05T12:13:59;42.70;23.20
4306;DHT22;2166;49.926;8.608;2023-06-05T12:16:52;42.70;23.10
4306;DHT22;2166;49.926;8.608;2023-06-05T12:19:20;43.40;22.30
4306;DHT22;2166;49.926;8.608;2023-06-05T12:21:50;44.40;22.10
4306;DHT22;2166;49.926;8.608;2023-06-05T12:24:23;45.00;21.40
4306;DHT22;2166;49.926;8.608;2023-06-05T12:26:54;44.70;22.40
4306;DHT22;2166;49.926;8.608;2023-06-05T12:29:24;44.90;21.80
4306;DHT22;2166;49.926;8.608;2023-06-05T12:31:58;44.50;23.10
4306;DHT22;2166;49.926;8.608;2023-06-05T12:34:40;43.70;23.50
4306;DHT22;2166;49.926;8.608;2023-06-05T12:37:25;43.80;23.20
4306;DHT22;2166;49.926;8.608;2023-06-05T12:39:59;43.90;23.50
4306;DHT22;2166;49.926;8.608;2023-06-05T12:42:34;44.00;22.90
4306;DHT22;2166;49.926;8.608;2023-06-05T12:45:08;44.10;23.00
4306;DHT22;2166;49.926;8.608;2023-06-05T12:47:40;45.00;22.10
4306;DHT22;2166;49.926;8.608;2023-06-05T12:50:11;45.40;21.90
4306;DHT22;2166;49.926;8.608;2023-06-05T12:52:44;45.30;22.10
4306;DHT22;2166;49.926;8.608;2023-06-05T12:55:17;45.70;21.40
4306;DHT22;2166;49.926;8.608;2023-06-05T12:57:46;46.30;21.40
4306;DHT22;2166;49.926;8.608;2023-06-05T13:00:16;46.40;21.50
4306;DHT22;2166;49.926;8.608;2023-06-05T13:02:47;45.90;21.00
4306;DHT22;2166;49.926;8.608;2023-06-05T13:05:16;46.10;21.50
4306;DHT22;2166;49.926;8.608;2023-06-05T13:07:48;45.60;21.40
4306;DHT22;2166;49.926;8.608;2023-06-05T13:10:20;45.20;21.30
4306;DHT22;2166;49.926;8.608;2023-06-05T13:12:50;44.00;21.60
4306;DHT22;2166;49.926;8.608;2023-06-05T13:15:18;43.10;22.50
4306;DHT22;2166;49.926;8.608;2023-06-05T13:17:51;43.80;22.00
4306;DHT22;2166;49.926;8.608;2023-06-05T13:20:19;44.50;21.90
4306;DHT22;2166;49.926;8.608;2023-06-05T13:22:52;44.50;22.10
4306;DHT22;2166;49.926;8.608;2023-06-05T13:25:22;43.30;22.60
4306;DHT22;2166;49.926;8.608;2023-06-05T13:27:50;41.90;23.30
4306;DHT22;2166;49.926;8.608;2023-06-05T13:30:20;42.00;23.70
4306;DHT22;2166;49.926;8.608;2023-06-05T13:32:53;42.70;22.90
4306;DHT22;2166;49.926;8.608;2023-06-05T13:35:25;41.60;23.40
4306;DHT22;2166;49.926;8.608;2023-06-05T13:37:54;40.40;23.80
4306;DHT22;2166;49.926;8.608;2023-06-05T13:40:23;40.00;24.50
4306;DHT22;2166;49.926;8.608;2023-06-05T13:42:54;40.30;24.20
4306;DHT22;2166;49.926;8.608;2023-06-05T13:45:26;40.70;23.20
4306;DHT22;2166;49.926;8.608;2023-06-05T13:47:56;41.60;23.50
4306;DHT22;2166;49.926;8.608;2023-06-05T13:50:28;41.90;22.80
4306;DHT22;2166;49.926;8.608;2023-06-05T13:52:56;41.90;23.10
4306;DHT22;2166;49.926;8.608;2023-06-05T13:55:27;42.30;22.90
4306;DHT22;2166;49.926;8.608;2023-06-05T13:57:59;42.00;22.90
4306;DHT22;2166;49.926;8.608;2023-06-05T14:00:31;41.80;23.50
4306;DHT22;2166;49.926;8.608;2023-06-05T14:03:02;41.90;23.50
4306;DHT22;2166;49.926;8.608;2023-06-05T14:05:32;42.10;23.20
4306;DHT22;2166;49.926;8.608;2023-06-05T14:08:00;42.10;22.80
4306;DHT22;2166;49.926;8.608;2023-06-05T14:10:29;42.60;22.50
4306;DHT22;2166;49.926;8.608;2023-06-05T14:13:06;43.10;22.40
4306;DHT22;2166;49.926;8.608;2023-06-05T14:15:34;43.10;22.50
4306;DHT22;2166;49.926;8.608;2023-06-05T14:18:06;43.50;22.40
4306;DHT22;2166;49.926;8.608;2023-06-05T14:20:37;42.80;23.00
4306;DHT22;2166;49.926;8.608;2023-06-05T14:23:07;42.50;22.90
4306;DHT22;2166;49.926;8.608;2023-06-05T14:25:37;42.40;22.50
4306;DHT22;2166;49.926;8.608;2023-06-05T14:28:06;41.40;23.20
4306;DHT22;2166;49.926;8.608;2023-06-05T14:30:39;40.20;24.30
4306;DHT22;2166;49.926;8.608;2023-06-05T14:33:12;39.70;24.20
4306;DHT22;2166;49.926;8.608;2023-06-05T14:35:41;39.90;24.10
4306;DHT22;2166;49.926;8.608;2023-06-05T14:38:12;39.80;23.70
4306;DHT22;2166;49.926;8.608;2023-06-05T14:40:40;40.50;23.80
4306;DHT22;2166;49.926;8.608;2023-06-05T14:43:09;41.40;23.60
4306;DHT22;2166;49.926;8.608;2023-06-05T14:45:39;41.80;23.40
4306;DHT22;2166;49.926;8.608;2023-06-05T14:48:16;41.70;23.50
4306;DHT22;2166;49.926;8.608;2023-06-05T14:50:54;41.30;23.60
4306;DHT22;2166;49.926;8.608;2023-06-05T14:53:24;41.20;24.30
4306;DHT22;2166;49.926;8.608;2023-06-05T14:55:55;41.00;23.90
4306;DHT22;2166;49.926;8.608;2023-06-05T14:58:26;41.10;23.90
4306;DHT22;2166;49.926;8.608;2023-06-05T15:00:55;40.70;24.00
4306;DHT22;2166;49.926;8.608;2023-06-05T15:03:37;40.60;24.30
4306;DHT22;2166;49.926;8.608;2023-06-05T15:06:09;40.50;24.00
4306;DHT22;2166;49.926;8.608;2023-06-05T15:08:50;39.30;24.70
4306;DHT22;2166;49.926;8.608;2023-06-05T15:11:20;38.50;25.90
4306;DHT22;2166;49.926;8.608;2023-06-05T15:13:52;38.40;25.40
4306;DHT22;2166;49.926;8.608;2023-06-05T15:16:21;38.70;25.50
4306;DHT22;2166;49.926;8.608;2023-06-05T15:19:08;38.40;25.60
4306;DHT22;2166;49.926;8.608;2023-06-05T15:21:37;38.00;26.30
4306;DHT22;2166;49.926;8.608;2023-06-05T15:24:06;37.10;26.30
4306;DHT22;2166;49.926;8.608;2023-06-05T15:26:35;36.30;27.10
4306;DHT22;2166;49.926;8.608;2023-06-05T15:29:05;36.00;27.20
4306;DHT22;2166;49.926;8.608;2023-06-05T15:31:38;35.90;27.80
4306;DHT22;2166;49.926;8.608;2023-06-05T15:34:11;35.80;27.50
4306;DHT22;2166;49.926;8.608;2023-06-05T15:36:41;36.10;27.30
4306;DHT22;2166;49.926;8.608;2023-06-05T15:39:10;35.90;27.10
4306;DHT22;2166;49.926;8.608;2023-06-05T15:41:40;35.80;27.50
4306;DHT22;2166;49.926;8.608;2023-06-05T15:44:14;36.30;27.10
4306;DHT22;2166;49.926;8.608;2023-06-05T15:46:46;36.40;27.10
4306;DHT22;2166;49.926;8.608;2023-06-05T15:49:16;36.30;26.60
4306;DHT22;2166;49.926;8.608;2023-06-05T15:51:46;36.50;26.90
4306;DHT22;2166;49.926;8.608;2023-06-05T15:54:16;36.30;26.70
4306;DHT22;2166;49.926;8.608;2023-06-05T15:57:07;36.00;27.10
4306;DHT22;2166;49.926;8.608;2023-06-05T15:59:36;35.60;27.30
4306;DHT22;2166;49.926;8.608;2023-06-05T16:02:06;35.60;27.70
4306;DHT22;2166;49.926;8.608;2023-06-05T16:04:38;35.40;27.90
4306;DHT22;2166;49.926;8.608;2023-06-05T16:07:09;35.30;27.80
4306;DHT22;2166;49.926;8.608;2023-06-05T16:09:39;35.20;27.10
4306;DHT22;2166;49.926;8.608;2023-06-05T16:12:10;35.30;27.30
4306;DHT22;2166;49.926;8.608;2023-06-05T16:14:39;35.20;27.60
4306;DHT22;2166;49.926;8.608;2023-06-05T16:17:11;35.30;27.50
4306;DHT22;2166;49.926;8.608;2023-06-05T16:19:45;35.30;27.20
4306;DHT22;2166;49.926;8.608;2023-06-05T16:22:20;35.30;27.40
4306;DHT22;2166;49.926;8.608;2023-06-05T16:24:49;35.20;27.30
4306;DHT22;2166;49.926;8.608;2023-06-05T16:27:19;35.00;27.70
4306;DHT22;2166;49.926;8.608;2023-06-05T16:29:49;34.80;27.90
4306;DHT22;2166;49.926;8.608;2023-06-05T16:32:20;34.70;28.30
4306;DHT22;2166;49.926;8.608;2023-06-05T16:34:52;34.50;28.50
4306;DHT22;2166;49.926;8.608;2023-06-05T16:37:23;34.20;28.70
4306;DHT22;2166;49.926;8.608;2023-06-05T16:39:57;34.00;28.70
4306;DHT22;2166;49.926;8.608;2023-06-05T16:42:25;33.70;29.10
4306;DHT22;2166;49.926;8.608;2023-06-05T16:44:58;33.60;29.00
4306;DHT22;2166;49.926;8.608;2023-06-05T16:47:28;33.10;29.50
4306;DHT22;2166;49.926;8.608;2023-06-05T16:50:03;32.80;29.60